Martin City, Missouri
Current Conditions -  °F | °C
As of 7:53 PM on Monday 24 Nov 2014 (Local Time) from KOJC Reporting Station
Clear Clear  
Wind Chill: -2°   Ceiling: Unl
Heat Index:   Visibility: 10mi
Dew Point: -7°   Wind: 6mph
Humidity: 56%   Direction: 300°WNW
Pressure: 30"   Gusts: NA
Location:  38.8519°N, 94.5455°W
Report Text: KOJC 250153Z 30005KT 10SM CLR 01/M07 A3000 RMK AO2 SLP166 T00111067
Loading
Personal Weather Stations






























Interactive Weather Map New forecast layout! Learn more

10-Day Weather Forecast

Advertisements
Track Severe Weather on mobile